(°C)
18°
17°
16°
15°
15°
15°
17°
(°C)
19°
18°
17°
16°
15°
16°
18°
ВСВ
ВСВ
В
В
В
В
В
(км/ч)
5-18
6-17
6-24
6-18
7-23
7-18
6-22
(мм)
0
0
0
0
0
0
0
(%)
0
0
0
0
0
12
25

Высота солнцестояния

/ -48.2°
sun-icon
UV 5
07:19
19:41
Растущая луна (161°)
19:21
05:19

METAR для Ioánnina (LGIO)

Время Условия Температура/
Точка росы
Ветер Видимость Погода Облачность Давление Изменить Необработанный
18°C / 16°C variable 3kt - 1017 - LGIO 182250Z AUTO VRB03KT //// // ////// 18/16 Q1017 RE//
18°C / 16°C variable 2kt - 1017 - LGIO 182220Z AUTO VRB02KT //// // ////// 18/16 Q1017 RE//
VFR 21°C / 17°C 220º 2kt >10km - Few Clouds 7000ft 1018 - LGIO 182150Z 22002KT 9999 FEW070 21/17 Q1018
VFR 19°C / 16°C 300º 2kt >10km - Few Clouds 7000ft 1018 - LGIO 182120Z 30002KT 9999 FEW070 19/16 Q1018
VFR 18°C / 15°C 310º 4kt >10km - Few Clouds 7000ft 1018 - LGIO 182050Z 31004KT 9999 FEW070 18/15 Q1018
VFR 18°C / 16°C 280º 3kt >10km - Few Clouds 6000ft 1017 - LGIO 182020Z 28003KT 9999 FEW060 18/16 Q1017
VFR 18°C / 16°C 10º 1kt >10km - Few Clouds 8000ft 1017 - LGIO 181950Z 01001KT 9999 FEW080 18/16 Q1017
VFR 20°C / 16°C variable 0kt >10km - Few Clouds 8000ft 1017 - LGIO 181920Z 00000KT 9999 FEW080 20/16 Q1017
VFR 21°C / 15°C variable 0kt >10km - Scattered Clouds 8000ft 1016 - LGIO 181850Z 00000KT 9999 SCT080 21/15 Q1016
VFR 21°C / 16°C 250º 2kt >10km - Scattered Clouds 8000ft 1016 - LGIO 181820Z 25002KT 9999 SCT080 21/16 Q1016
VFR 21°C / 16°C 350º 2kt >10km - Broken Clouds 8000ft 1016 - LGIO 181750Z 35002KT 9999 BKN080 21/16 Q1016
22°C / 16°C variable 3kt - 1016 - LGIO 181720Z AUTO VRB03KT //// // ////// 22/16 Q1016 RERA
24°C / 15°C 310º variable 270º to 330º 4kt - 1016 - LGIO 181650Z AUTO 31004KT 270V330 //// // ////// 24/15 Q1016 RE//
24°C / 14°C 360º 5kt - 1016 - LGIO 181620Z AUTO 36005KT //// // ////// 24/14 Q1016 RERA
24°C / 17°C 290º variable 240º to 310º 7kt Light Rain 1.00mm precipitation Vertical Visibility of 0ft. 1016 - LGIO 181550Z AUTO 29007KT 240V310 //// -RA ////// 24/17 Q1016 RE//
26°C / 15°C 260º variable 230º to 310º 8kt - 1016 - LGIO 181520Z AUTO 26008KT 230V310 //// // ////// 26/15 Q1016 RE//
27°C / 15°C 270º variable 210º to 310º 6kt Light Rain 1.00mm precipitation Vertical Visibility of 0ft. 1015 - LGIO 181450Z AUTO 27006KT 210V310 //// -RA ////// 27/15 Q1015 RE//
28°C / 14°C 280º variable 220º to 310º 9kt Light Rain 1.00mm precipitation Vertical Visibility of 0ft. 1015 - LGIO 181420Z AUTO 28009KT 220V310 //// -RA ////// 28/14 Q1015 RE//
28°C / 14°C 280º variable 200º to 320º 7kt - 1015 - LGIO 181350Z AUTO 28007KT 200V320 //// // ////// 28/14 Q1015 RE//
29°C / 13°C 300º variable 220º to 320º 10kt - 1015 - LGIO 181320Z AUTO 30010KT 220V320 //// // ////// 29/13 Q1015 RE//
29°C / 15°C 300º variable 230º to 320º 9kt - 1016 - LGIO 181250Z AUTO 30009KT 230V320 //// // ////// 29/15 Q1016 RE//
30°C / 15°C 300º variable 180º to 320º 4kt - 1016 - LGIO 181220Z AUTO 30004KT 180V320 //// // ////// 30/15 Q1016 RE//
VFR 28°C / 15°C 280º variable 250º to 320º 9kt >10km - Few Clouds 3500ft 1016 - LGIO 181150Z 28009KT 250V320 9999 FEW035 BKN080 28/15 Q1016
VFR 28°C / 15°C 300º variable 240º to 340º 9kt >10km - Few Clouds 3500ft 1017 - LGIO 181120Z 30009KT 240V340 9999 FEW035 BKN080 28/15 Q1017

18°C / 16°C

[Больше]
Ветер variable 3kt
Видимость
Погода -
Облачность
Давление 1017
Изменить -
Необработанный LGIO 182250Z AUTO VRB03KT //// // ////// 18/16 Q1017 RE//

18°C / 16°C

[Больше]
Ветер variable 2kt
Видимость
Погода -
Облачность
Давление 1017
Изменить -
Необработанный LGIO 182220Z AUTO VRB02KT //// // ////// 18/16 Q1017 RE//

VFR

21°C / 17°C

[Больше]
Ветер 220º 2kt
Видимость >10km
Погода -
Облачность Few Clouds 7000ft
Давление 1018
Изменить -
Необработанный LGIO 182150Z 22002KT 9999 FEW070 21/17 Q1018

VFR

19°C / 16°C

[Больше]
Ветер 300º 2kt
Видимость >10km
Погода -
Облачность Few Clouds 7000ft
Давление 1018
Изменить -
Необработанный LGIO 182120Z 30002KT 9999 FEW070 19/16 Q1018

VFR

18°C / 15°C

[Больше]
Ветер 310º 4kt
Видимость >10km
Погода -
Облачность Few Clouds 7000ft
Давление 1018
Изменить -
Необработанный LGIO 182050Z 31004KT 9999 FEW070 18/15 Q1018

VFR

18°C / 16°C

[Больше]
Ветер 280º 3kt
Видимость >10km
Погода -
Облачность Few Clouds 6000ft
Давление 1017
Изменить -
Необработанный LGIO 182020Z 28003KT 9999 FEW060 18/16 Q1017

VFR

18°C / 16°C

[Больше]
Ветер 10º 1kt
Видимость >10km
Погода -
Облачность Few Clouds 8000ft
Давление 1017
Изменить -
Необработанный LGIO 181950Z 01001KT 9999 FEW080 18/16 Q1017

VFR

20°C / 16°C

[Больше]
Ветер variable 0kt
Видимость >10km
Погода -
Облачность Few Clouds 8000ft
Давление 1017
Изменить -
Необработанный LGIO 181920Z 00000KT 9999 FEW080 20/16 Q1017

VFR

21°C / 15°C

[Больше]
Ветер variable 0kt
Видимость >10km
Погода -
Облачность Scattered Clouds 8000ft
Давление 1016
Изменить -
Необработанный LGIO 181850Z 00000KT 9999 SCT080 21/15 Q1016

VFR

21°C / 16°C

[Больше]
Ветер 250º 2kt
Видимость >10km
Погода -
Облачность Scattered Clouds 8000ft
Давление 1016
Изменить -
Необработанный LGIO 181820Z 25002KT 9999 SCT080 21/16 Q1016

VFR

21°C / 16°C

[Больше]
Ветер 350º 2kt
Видимость >10km
Погода -
Облачность Broken Clouds 8000ft
Давление 1016
Изменить -
Необработанный LGIO 181750Z 35002KT 9999 BKN080 21/16 Q1016

22°C / 16°C

[Больше]
Ветер variable 3kt
Видимость
Погода -
Облачность
Давление 1016
Изменить -
Необработанный LGIO 181720Z AUTO VRB03KT //// // ////// 22/16 Q1016 RERA

24°C / 15°C

[Больше]
Ветер 310º variable 270º to 330º 4kt
Видимость
Погода -
Облачность
Давление 1016
Изменить -
Необработанный LGIO 181650Z AUTO 31004KT 270V330 //// // ////// 24/15 Q1016 RE//

24°C / 14°C

[Больше]
Ветер 360º 5kt
Видимость
Погода -
Облачность
Давление 1016
Изменить -
Необработанный LGIO 181620Z AUTO 36005KT //// // ////// 24/14 Q1016 RERA

24°C / 17°C

[Больше]
Ветер 290º variable 240º to 310º 7kt
Видимость
Погода Light Rain 1.00mm precipitation
Облачность Vertical Visibility of 0ft.
Давление 1016
Изменить -
Необработанный LGIO 181550Z AUTO 29007KT 240V310 //// -RA ////// 24/17 Q1016 RE//

26°C / 15°C

[Больше]
Ветер 260º variable 230º to 310º 8kt
Видимость
Погода -
Облачность
Давление 1016
Изменить -
Необработанный LGIO 181520Z AUTO 26008KT 230V310 //// // ////// 26/15 Q1016 RE//

27°C / 15°C

[Больше]
Ветер 270º variable 210º to 310º 6kt
Видимость
Погода Light Rain 1.00mm precipitation
Облачность Vertical Visibility of 0ft.
Давление 1015
Изменить -
Необработанный LGIO 181450Z AUTO 27006KT 210V310 //// -RA ////// 27/15 Q1015 RE//

28°C / 14°C

[Больше]
Ветер 280º variable 220º to 310º 9kt
Видимость
Погода Light Rain 1.00mm precipitation
Облачность Vertical Visibility of 0ft.
Давление 1015
Изменить -
Необработанный LGIO 181420Z AUTO 28009KT 220V310 //// -RA ////// 28/14 Q1015 RE//

28°C / 14°C

[Больше]
Ветер 280º variable 200º to 320º 7kt
Видимость
Погода -
Облачность
Давление 1015
Изменить -
Необработанный LGIO 181350Z AUTO 28007KT 200V320 //// // ////// 28/14 Q1015 RE//

29°C / 13°C

[Больше]
Ветер 300º variable 220º to 320º 10kt
Видимость
Погода -
Облачность
Давление 1015
Изменить -
Необработанный LGIO 181320Z AUTO 30010KT 220V320 //// // ////// 29/13 Q1015 RE//

29°C / 15°C

[Больше]
Ветер 300º variable 230º to 320º 9kt
Видимость
Погода -
Облачность
Давление 1016
Изменить -
Необработанный LGIO 181250Z AUTO 30009KT 230V320 //// // ////// 29/15 Q1016 RE//

30°C / 15°C

[Больше]
Ветер 300º variable 180º to 320º 4kt
Видимость
Погода -
Облачность
Давление 1016
Изменить -
Необработанный LGIO 181220Z AUTO 30004KT 180V320 //// // ////// 30/15 Q1016 RE//

VFR

28°C / 15°C

[Больше]
Ветер 280º variable 250º to 320º 9kt
Видимость >10km
Погода -
Облачность Few Clouds 3500ft
Давление 1016
Изменить -
Необработанный LGIO 181150Z 28009KT 250V320 9999 FEW035 BKN080 28/15 Q1016

VFR

28°C / 15°C

[Больше]
Ветер 300º variable 240º to 340º 9kt
Видимость >10km
Погода -
Облачность Few Clouds 3500ft
Давление 1017
Изменить -
Необработанный LGIO 181120Z 30009KT 240V340 9999 FEW035 BKN080 28/15 Q1017

TAF для Ioánnina (LGIO)

From till


From till Wind variable 3kt. Visibility 5000m. Mist . Scattered Clouds 500ft.
With 40% probability, from till Visibility 193.121m. Fog . Broken Clouds 100ft.

Необработанный: TAF LGIO 182000Z 1821/1906 VRB03KT 5000 BR SCT005 PROB40 1900/1906 0200 FG BKN001

Текущие спутниковые изображения и снимки дождя для Ioánnina, Греция

Указатель местности находится на Ioánnina. [Больше]

Спутниковое изображение в реальном времени сочетает в себе видимый свет в дневное время с инфракрасным излучением в ночное время. Ночью изображение получается не темным, так как инфракрасное излучение может обнаружить разницу температур. К сожалению, низкие облака и туман трудно отличить от температуры у поверхности земли и поэтому могут быть почти незаметны ночью. Спутниковые снимки Meteosat для Европы обновляются каждые 5 минут в режиме реального времени.Снимки GOES-16/GOES-17 (Северная и Южная Америка) и Химавари (Азия) обновляются каждые 10 минут.

Вероятность осадков оценивается по данным радиолокаторов и спутников. Спутниковые данные о возможности осадков в ночное время менее точные, чем дневные данные. Оранжевыми крестами отмечаются места,где обнаруживается молния (болееЕвропа).

Копирайт 2021 EUMETSAT / meteoblue. Данные о молниях предоставляются со стороны nowcast.

Радарный и сверхкраткосрочный прогноз осадков для Ioánnina

Морось
Незначительные
Умеренные
Сильные
Очень Сильные
Град

Индикатор местности находится на Ioánnina. Анимация показывает радар осадков за последний час, а также прогноз погоды для 1h. Морось или небольшой снег могут быть невидимы для радара. Интенсивность осадков имеет цветовую кодировку - от светло-голубого до оранжевого.

Погода в настоящий момент и предупреждения

EUMETNET – MeteoAlarm

pictomap

Источник: HNMS

Возможны временные задержки между сведениями данного веб сайта и веб сайта www.meteoalarm.eu, для получения наиболее недавней информации о сигнальных уровнях, публикуемых со стороны National Meteorological Services, полжалуйста, используйте www.meteoalarm.eu.